createdAt,value
2019-03-01T00:01:15.550Z,15.83
2019-03-01T00:03:44.106Z,16.67
2019-03-01T00:06:15.874Z,17.15
2019-03-01T00:09:05.185Z,14.90
2019-03-01T00:12:03.454Z,17.57
2019-03-01T00:14:34.996Z,15.45
2019-03-01T00:17:38.628Z,15.10
2019-03-01T00:20:39.744Z,15.58
2019-03-01T00:23:46.722Z,15.58
2019-03-01T00:26:18.235Z,14.40
2019-03-01T00:29:09.372Z,16.93
2019-03-01T00:31:49.355Z,16.55
2019-03-01T00:34:26.563Z,15.58
2019-03-01T00:37:01.030Z,15.32
2019-03-01T00:39:53.506Z,17.23
2019-03-01T00:42:39.941Z,16.40
2019-03-01T00:45:08.510Z,16.85
2019-03-01T00:47:37.072Z,17.62
2019-03-01T00:50:08.857Z,17.02
2019-03-01T00:52:37.822Z,17.05
2019-03-01T00:55:08.347Z,16.70
2019-03-01T00:57:36.810Z,16.27
2019-03-01T01:00:08.348Z,16.95
2019-03-01T01:02:36.907Z,16.07
2019-03-01T01:05:07.087Z,16.27
2019-03-01T01:07:35.610Z,16.52
2019-03-01T01:10:04.805Z,16.77
2019-03-01T01:12:33.361Z,17.02
2019-03-01T01:15:01.831Z,14.43
2019-03-01T01:17:30.338Z,17.50
2019-03-01T01:19:58.821Z,16.05
2019-03-01T01:22:27.323Z,17.45
2019-03-01T01:24:55.809Z,16.40
2019-03-01T01:27:24.301Z,17.45
2019-03-01T01:29:52.774Z,17.62
2019-03-01T01:32:21.259Z,18.95
2019-03-01T01:34:49.741Z,18.02
2019-03-01T01:37:18.232Z,18.67
2019-03-01T01:39:46.700Z,17.82
2019-03-01T01:42:15.194Z,18.65
2019-03-01T01:44:43.703Z,20.10
2019-03-01T01:47:12.255Z,21.85
2019-03-01T01:49:40.723Z,21.77
2019-03-01T01:52:09.283Z,20.57
2019-03-01T01:54:37.834Z,22.55
2019-03-01T01:57:06.316Z,21.75
2019-03-01T01:59:34.783Z,21.42
2019-03-01T02:02:03.251Z,22.32
2019-03-01T02:04:31.829Z,22.32
2019-03-01T02:07:00.433Z,19.23
2019-03-01T02:09:30.057Z,21.95
2019-03-01T02:11:58.543Z,23.07
2019-03-01T02:14:27.187Z,19.48
2019-03-01T02:16:55.687Z,19.73
2019-03-01T02:19:24.173Z,22.80
2019-03-01T02:21:52.758Z,22.73
2019-03-01T02:24:21.253Z,23.12
2019-03-01T02:26:49.791Z,20.65
2019-03-01T02:29:18.301Z,21.62
2019-03-01T02:31:49.854Z,19.90
2019-03-01T02:34:19.635Z,22.70
2019-03-01T02:36:48.238Z,22.82
2019-03-01T02:39:16.728Z,21.42
2019-03-01T02:41:45.213Z,21.30
2019-03-01T02:44:13.707Z,22.67
2019-03-01T02:46:42.187Z,21.82
2019-03-01T02:49:10.668Z,23.40
2019-03-01T02:51:39.200Z,23.90
2019-03-01T02:54:07.710Z,24.25
2019-03-01T02:56:36.290Z,23.67
2019-03-01T02:59:04.774Z,23.83
2019-03-01T03:01:33.280Z,24.75
2019-03-01T03:04:01.761Z,25.32
2019-03-01T03:06:40.837Z,25.48
2019-03-01T03:09:10.034Z,27.40
2019-03-01T03:11:38.514Z,25.32
2019-03-01T03:14:07.042Z,23.95
2019-03-01T03:16:35.528Z,25.77
2019-03-01T03:19:04.082Z,27.98
2019-03-01T03:21:32.579Z,26.50
2019-03-01T03:24:01.077Z,28.40
2019-03-01T03:26:29.590Z,25.08
2019-03-01T03:28:58.075Z,25.72
2019-03-01T03:31:26.560Z,24.50
2019-03-01T03:33:55.130Z,22.13
2019-03-01T03:36:23.679Z,24.70
2019-03-01T03:38:52.123Z,23.18
2019-03-01T03:41:20.813Z,25.02
2019-03-01T03:43:49.354Z,22.62
2019-03-01T03:46:17.830Z,28.17
2019-03-01T03:48:46.306Z,26.30
2019-03-01T03:51:14.780Z,27.75
2019-03-01T03:53:43.256Z,25.37
2019-03-01T03:56:11.808Z,27.90
2019-03-01T03:58:40.404Z,25.60
2019-03-01T04:01:08.983Z,26.93
2019-03-01T04:03:37.589Z,26.02
2019-03-01T04:06:08.842Z,26.80
2019-03-01T04:08:37.310Z,29.25
2019-03-01T04:11:05.795Z,27.27
2019-03-01T04:13:34.288Z,27.30
2019-03-01T04:16:02.987Z,27.93
2019-03-01T04:18:31.458Z,30.05
2019-03-01T04:21:01.579Z,29.02
2019-03-01T04:23:30.051Z,31.10
2019-03-01T04:25:58.536Z,27.52
2019-03-01T04:28:27.013Z,32.42
2019-03-01T04:30:55.483Z,33.25
2019-03-01T04:33:24.004Z,30.40
2019-03-01T04:35:52.475Z,28.10
2019-03-01T04:38:20.970Z,31.30
2019-03-01T04:40:49.458Z,32.67
2019-03-01T04:43:17.928Z,33.25
2019-03-01T04:45:46.394Z,32.83
2019-03-01T04:48:15.537Z,32.78
2019-03-01T04:50:44.031Z,31.52
2019-03-01T04:53:12.501Z,27.60
2019-03-01T04:55:40.986Z,31.52
2019-03-01T04:58:45.775Z,30.85
2019-03-01T05:01:14.347Z,33.87
2019-03-01T05:03:42.805Z,32.65
2019-03-01T05:06:11.286Z,28.40
2019-03-01T05:08:39.747Z,29.10
2019-03-01T05:11:08.231Z,28.00
2019-03-01T05:13:36.809Z,28.60
2019-03-01T05:16:05.424Z,31.23
2019-03-01T05:18:33.895Z,33.02
2019-03-01T05:21:02.396Z,30.15
2019-03-01T05:23:30.887Z,32.03
2019-03-01T05:25:59.358Z,32.60
2019-03-01T05:28:28.216Z,31.30
2019-03-01T05:30:56.688Z,33.23
2019-03-01T05:33:25.171Z,30.27
2019-03-01T05:35:53.657Z,31.45
2019-03-01T05:38:22.248Z,29.52
2019-03-01T05:40:50.852Z,29.15
2019-03-01T05:43:19.362Z,30.77
2019-03-01T05:45:47.839Z,27.32
2019-03-01T05:48:16.317Z,29.70
2019-03-01T05:50:44.836Z,31.30
2019-03-01T05:53:13.290Z,28.77
2019-03-01T05:55:41.774Z,29.40
2019-03-01T05:58:28.304Z,25.37
2019-03-01T06:00:59.668Z,26.55
2019-03-01T06:04:04.974Z,26.75
2019-03-01T06:06:42.216Z,23.62
2019-03-01T06:09:19.406Z,24.02
2019-03-01T06:12:05.662Z,24.70
2019-03-01T06:14:40.076Z,24.05
2019-03-01T06:17:26.024Z,23.85
2019-03-01T06:20:15.596Z,20.40
2019-03-01T06:23:21.224Z,21.37
2019-03-01T06:26:04.420Z,20.37
2019-03-01T06:28:35.959Z,18.80
2019-03-01T06:31:33.329Z,19.50
2019-03-01T06:34:40.652Z,20.25
2019-03-01T06:37:32.743Z,16.40
2019-03-01T06:40:43.968Z,17.45
2019-03-01T06:43:32.228Z,16.85
2019-03-01T06:46:39.570Z,17.57
2019-03-01T06:49:12.362Z,16.23
2019-03-01T06:51:40.967Z,17.20
2019-03-01T06:54:09.460Z,16.27
2019-03-01T06:56:37.997Z,15.30
2019-03-01T06:59:06.552Z,16.93
2019-03-01T07:01:35.596Z,15.15
2019-03-01T07:04:07.415Z,14.75
2019-03-01T07:06:35.901Z,15.08
2019-03-01T07:09:05.942Z,16.15
2019-03-01T07:11:34.526Z,16.23
2019-03-01T07:14:02.980Z,14.23
2019-03-01T07:16:31.536Z,12.82
2019-03-01T07:19:00.027Z,12.75
2019-03-01T07:21:30.103Z,11.08
2019-03-01T07:23:58.618Z,11.97
2019-03-01T07:26:27.081Z,9.88
2019-03-01T07:28:55.638Z,10.10
2019-03-01T07:31:24.117Z,10.25
2019-03-01T07:33:52.615Z,11.05
2019-03-01T07:36:21.064Z,9.53
2019-03-01T07:38:49.555Z,11.12
2019-03-01T07:41:18.019Z,10.45
2019-03-01T07:43:46.508Z,10.93
2019-03-01T07:46:14.976Z,9.60
2019-03-01T07:48:43.463Z,10.10
2019-03-01T07:51:11.943Z,11.20
2019-03-01T07:53:42.057Z,10.38
2019-03-01T07:56:10.731Z,10.55
2019-03-01T07:58:39.231Z,10.32
2019-03-01T08:01:07.702Z,10.35
2019-03-01T08:03:36.196Z,9.68
2019-03-01T08:06:04.795Z,11.70
2019-03-01T08:08:34.935Z,12.00
2019-03-01T08:11:03.619Z,11.18
2019-03-01T08:13:32.084Z,10.38
2019-03-01T08:16:02.191Z,9.45
2019-03-01T08:18:30.917Z,8.18
2019-03-01T08:20:59.452Z,7.55
2019-03-01T08:23:27.920Z,7.80
2019-03-01T08:25:58.941Z,7.47
2019-03-01T08:28:26.600Z,7.87
2019-03-01T08:30:55.154Z,6.90
2019-03-01T08:33:23.619Z,7.33
2019-03-01T08:35:52.111Z,9.95
2019-03-01T08:38:20.727Z,9.48
2019-03-01T08:40:49.876Z,6.92
2019-03-01T08:43:19.230Z,8.25
2019-03-01T08:45:47.712Z,6.97
2019-03-01T08:48:16.195Z,7.30
2019-03-01T08:50:45.199Z,7.92
2019-03-01T08:53:15.104Z,7.62
2019-03-01T08:55:43.883Z,6.67
2019-03-01T08:58:12.370Z,6.40
2019-03-01T09:01:08.235Z,6.87
2019-03-01T09:04:01.700Z,6.87
2019-03-01T09:06:30.199Z,5.90
2019-03-01T09:08:58.656Z,5.78
2019-03-01T09:11:27.222Z,5.25
2019-03-01T09:13:55.716Z,5.00
2019-03-01T09:16:24.242Z,3.80
2019-03-01T09:18:52.780Z,2.92
2019-03-01T09:21:21.270Z,3.00
2019-03-01T09:23:52.095Z,3.10
2019-03-01T09:26:20.770Z,4.22
2019-03-01T09:28:49.452Z,2.80
2019-03-01T09:31:17.962Z,2.80
2019-03-01T09:33:46.454Z,2.62
2019-03-01T09:36:17.823Z,2.87
2019-03-01T09:38:48.317Z,2.90
2019-03-01T09:41:16.848Z,2.87
2019-03-01T09:43:45.358Z,2.80
2019-03-01T09:46:13.964Z,2.87
2019-03-01T09:48:45.636Z,3.27
2019-03-01T09:51:12.628Z,2.60
2019-03-01T09:53:41.187Z,2.72
2019-03-01T09:56:12.712Z,2.65
2019-03-01T09:58:39.859Z,2.60
2019-03-01T10:01:17.380Z,2.47
2019-03-01T10:03:46.208Z,2.33
2019-03-01T10:06:14.670Z,2.65
2019-03-01T10:08:43.154Z,2.92
2019-03-01T10:11:12.109Z,2.80
2019-03-01T10:13:40.601Z,2.45
2019-03-01T10:16:09.196Z,2.35
2019-03-01T10:18:37.748Z,2.65
2019-03-01T10:21:06.368Z,2.87
2019-03-01T10:23:34.931Z,2.67
2019-03-01T10:26:03.458Z,2.92
2019-03-01T10:28:31.955Z,3.00
2019-03-01T10:31:00.432Z,2.65
2019-03-01T10:33:28.992Z,3.95
2019-03-01T10:35:57.453Z,3.37
2019-03-01T10:38:25.932Z,2.77
2019-03-01T10:40:54.412Z,3.10
2019-03-01T10:43:23.523Z,4.15
2019-03-01T10:45:52.207Z,3.52
2019-03-01T10:48:20.800Z,2.60
2019-03-01T10:50:49.303Z,3.05
2019-03-01T10:53:17.858Z,2.77
2019-03-01T10:55:46.376Z,2.52
2019-03-01T10:58:14.919Z,2.77
2019-03-01T11:00:43.399Z,2.77
2019-03-01T11:03:12.010Z,2.70
2019-03-01T11:05:40.490Z,3.65
2019-03-01T11:08:09.053Z,4.40
2019-03-01T11:10:45.131Z,3.45
2019-03-01T11:13:19.014Z,3.20
2019-03-01T11:15:47.581Z,3.17
2019-03-01T11:18:16.060Z,3.90
2019-03-01T11:20:44.518Z,3.70
2019-03-01T11:23:13.014Z,3.85
2019-03-01T11:25:41.503Z,4.35
2019-03-01T11:28:10.596Z,4.90
2019-03-01T11:30:39.379Z,4.78
2019-03-01T11:33:07.925Z,4.87
2019-03-01T11:35:36.609Z,5.40
2019-03-01T11:38:05.245Z,5.40
2019-03-01T11:40:38.309Z,6.67
2019-03-01T11:43:07.042Z,5.58
2019-03-01T11:45:35.755Z,5.92
2019-03-01T11:48:05.695Z,5.95
2019-03-01T11:50:34.194Z,6.17
2019-03-01T11:53:02.742Z,6.42
2019-03-01T11:55:31.284Z,6.22
2019-03-01T11:57:59.859Z,5.28
2019-03-01T12:00:29.349Z,5.00
2019-03-01T12:02:58.269Z,5.35
2019-03-01T12:05:26.885Z,4.95
2019-03-01T12:07:55.497Z,4.80
2019-03-01T12:10:31.078Z,3.50
2019-03-01T12:12:59.798Z,3.55
2019-03-01T12:15:28.396Z,3.90
2019-03-01T12:17:57.022Z,3.35
2019-03-01T12:20:26.930Z,3.20
2019-03-01T12:22:55.412Z,3.62
2019-03-01T12:25:23.964Z,3.10
2019-03-01T12:27:52.433Z,3.12
2019-03-01T12:30:27.334Z,3.55
2019-03-01T12:32:55.898Z,3.65
2019-03-01T12:35:24.446Z,4.30
2019-03-01T12:37:52.989Z,3.95
2019-03-01T12:40:31.601Z,3.50
2019-03-01T12:43:00.058Z,3.22
2019-03-01T12:45:28.618Z,3.17
2019-03-01T12:47:57.086Z,2.83
2019-03-01T12:50:25.561Z,3.08
2019-03-01T12:52:54.041Z,2.95
2019-03-01T12:55:26.967Z,3.45
2019-03-01T12:57:55.491Z,2.85
2019-03-01T13:00:32.895Z,2.83
2019-03-01T13:03:01.434Z,3.15
2019-03-01T13:05:30.402Z,2.47
2019-03-01T13:07:58.925Z,2.60
2019-03-01T13:10:36.927Z,2.70
2019-03-01T13:13:07.948Z,2.35
2019-03-01T13:15:34.144Z,2.87
2019-03-01T13:18:03.603Z,2.77
2019-03-01T13:20:33.818Z,2.98
2019-03-01T13:23:04.928Z,3.10
2019-03-01T13:25:33.691Z,2.87
2019-03-01T13:28:02.180Z,2.77
2019-03-01T13:30:32.693Z,3.02
2019-03-01T13:33:02.433Z,2.92
2019-03-01T13:35:31.355Z,2.50
2019-03-01T13:37:59.823Z,2.62
2019-03-01T13:40:28.295Z,2.35
2019-03-01T13:42:56.842Z,2.72
2019-03-01T13:45:26.982Z,2.65
2019-03-01T13:47:55.549Z,2.70
2019-03-01T13:50:24.084Z,2.80
2019-03-01T13:52:52.607Z,2.52
2019-03-01T13:55:23.843Z,3.30
2019-03-01T13:57:51.683Z,3.60
2019-03-01T14:00:22.147Z,2.77
2019-03-01T14:02:50.980Z,3.30
2019-03-01T14:05:19.892Z,2.95
2019-03-01T14:07:55.396Z,3.00
2019-03-01T14:10:28.036Z,3.47
2019-03-01T14:12:56.557Z,3.45
2019-03-01T14:15:25.275Z,3.37
2019-03-01T14:17:53.807Z,3.08
2019-03-01T14:20:22.652Z,2.72
2019-03-01T14:22:51.246Z,3.33
2019-03-01T14:25:19.872Z,3.37
2019-03-01T14:27:49.918Z,2.85
2019-03-01T14:30:20.863Z,2.55
2019-03-01T14:32:49.413Z,3.17
2019-03-01T14:35:20.167Z,2.98
2019-03-01T14:37:54.226Z,3.08
2019-03-01T14:40:22.712Z,2.70
2019-03-01T14:42:49.867Z,3.08
2019-03-01T14:45:25.490Z,3.20
2019-03-01T14:47:53.834Z,3.70
2019-03-01T14:50:25.106Z,2.77
2019-03-01T14:52:58.384Z,4.08
2019-03-01T14:55:27.191Z,4.80
2019-03-01T14:58:01.284Z,3.55
2019-03-01T15:00:32.812Z,4.22
2019-03-01T15:03:20.906Z,3.92
2019-03-01T15:05:49.391Z,4.45
2019-03-01T15:08:17.849Z,3.08
2019-03-01T15:10:46.403Z,3.45
2019-03-01T15:13:14.944Z,2.98
2019-03-01T15:15:43.477Z,4.03
2019-03-01T15:18:12.097Z,2.87
2019-03-01T15:20:40.591Z,3.10
2019-03-01T15:23:09.121Z,3.75
2019-03-01T15:25:37.608Z,3.25
2019-03-01T15:28:06.142Z,3.55
2019-03-01T15:30:34.611Z,3.42
2019-03-01T15:33:03.123Z,2.98
2019-03-01T15:35:31.593Z,2.80
2019-03-01T15:38:00.102Z,3.15
2019-03-01T15:40:31.476Z,3.17
2019-03-01T15:42:58.860Z,2.58
2019-03-01T15:45:27.402Z,2.60
2019-03-01T15:47:58.730Z,3.58
2019-03-01T15:50:27.371Z,2.67
2019-03-01T15:52:56.511Z,3.65
2019-03-01T15:55:25.047Z,4.03
2019-03-01T15:57:56.427Z,3.62
2019-03-01T16:00:25.676Z,3.67
2019-03-01T16:02:54.069Z,3.70
2019-03-01T16:05:22.646Z,3.20
2019-03-01T16:07:53.262Z,3.83
2019-03-01T16:10:21.888Z,2.80
2019-03-01T16:12:50.406Z,3.02
2019-03-01T16:15:19.025Z,3.10
2019-03-01T16:17:47.602Z,3.22
2019-03-01T16:20:20.509Z,3.72
2019-03-01T16:22:51.163Z,3.60
2019-03-01T16:25:20.511Z,3.65
2019-03-01T16:27:50.722Z,3.92
2019-03-01T16:30:21.475Z,3.55
2019-03-01T16:32:50.771Z,3.62
2019-03-01T16:35:25.359Z,3.80
2019-03-01T16:38:02.320Z,3.47
2019-03-01T16:40:31.190Z,3.90
2019-03-01T16:42:59.725Z,4.10
2019-03-01T16:45:28.459Z,3.30
2019-03-01T16:47:56.928Z,3.77
2019-03-01T16:50:25.473Z,3.25
2019-03-01T16:52:54.010Z,3.62
2019-03-01T16:55:27.679Z,3.33
2019-03-01T16:58:06.004Z,3.47
2019-03-01T17:00:25.718Z,3.72
2019-03-01T17:03:16.846Z,3.52
2019-03-01T17:05:41.598Z,3.45
2019-03-01T17:08:10.529Z,3.12
2019-03-01T17:10:39.313Z,3.77
2019-03-01T17:13:07.852Z,2.70
2019-03-01T17:15:36.324Z,3.83
2019-03-01T17:18:04.931Z,3.65
2019-03-01T17:20:37.392Z,4.08
2019-03-01T17:23:03.915Z,3.92
2019-03-01T17:25:32.479Z,3.40
2019-03-01T17:28:00.987Z,3.87
2019-03-01T17:30:29.578Z,3.30
2019-03-01T17:32:58.062Z,3.55
2019-03-01T17:35:26.688Z,3.98
2019-03-01T17:37:55.196Z,3.33
2019-03-01T17:40:23.653Z,3.22
2019-03-01T17:42:53.185Z,3.47
2019-03-01T17:45:23.553Z,3.40
2019-03-01T17:47:52.216Z,3.45
2019-03-01T17:50:20.760Z,3.15
2019-03-01T17:52:49.236Z,4.45
2019-03-01T17:55:25.262Z,4.17
2019-03-01T17:57:53.924Z,5.17
2019-03-01T18:00:33.983Z,3.85
2019-03-01T18:03:02.480Z,3.77
2019-03-01T18:05:31.002Z,6.67
2019-03-01T18:08:00.022Z,7.62
2019-03-01T18:10:32.114Z,4.72
2019-03-01T18:13:00.212Z,5.03
2019-03-01T18:15:28.774Z,4.97
2019-03-01T18:17:58.902Z,4.60
2019-03-01T18:20:27.442Z,3.83
2019-03-01T18:22:59.397Z,6.12
2019-03-01T18:25:27.150Z,5.03
2019-03-01T18:27:55.759Z,6.05
2019-03-01T18:30:26.360Z,9.85
2019-03-01T18:32:54.935Z,4.50
2019-03-01T18:35:23.512Z,4.90
2019-03-01T18:37:55.000Z,4.05
2019-03-01T18:40:22.403Z,4.08
2019-03-01T18:42:50.985Z,4.45
2019-03-01T18:45:27.318Z,4.37
2019-03-01T18:47:55.859Z,4.67
2019-03-01T18:50:35.249Z,4.60
2019-03-01T18:53:04.420Z,4.80
2019-03-01T18:55:33.443Z,4.17
2019-03-01T18:58:01.979Z,4.12
2019-03-01T19:00:44.335Z,4.33
2019-03-01T19:03:12.904Z,5.15
2019-03-01T19:05:41.449Z,6.42
2019-03-01T19:08:10.072Z,4.50
2019-03-01T19:10:38.614Z,7.55
2019-03-01T19:13:07.215Z,4.75
2019-03-01T19:15:36.251Z,6.12
2019-03-01T19:18:05.769Z,4.55
2019-03-01T19:20:52.254Z,4.75
2019-03-01T19:23:20.735Z,4.62
2019-03-01T19:25:49.208Z,5.00
2019-03-01T19:28:17.696Z,5.08
2019-03-01T19:30:49.039Z,4.30
2019-03-01T19:33:17.255Z,3.77
2019-03-01T19:35:45.723Z,3.92
2019-03-01T19:38:14.206Z,3.30
2019-03-01T19:40:43.439Z,3.87
2019-03-01T19:43:12.944Z,5.50
2019-03-01T19:45:41.568Z,3.55
2019-03-01T19:48:10.088Z,4.55
2019-03-01T19:50:38.644Z,4.00
2019-03-01T19:53:07.153Z,3.90
2019-03-01T19:55:38.763Z,3.72
2019-03-01T19:58:08.724Z,4.28
2019-03-01T20:00:39.185Z,4.92
2019-03-01T20:03:11.266Z,4.65
2019-03-01T20:05:42.694Z,5.90
2019-03-01T20:08:11.271Z,4.87
2019-03-01T20:10:39.776Z,4.03
2019-03-01T20:13:08.435Z,4.15
2019-03-01T20:15:37.047Z,6.78
2019-03-01T20:18:06.777Z,6.22
2019-03-01T20:20:36.007Z,6.35
2019-03-01T20:23:04.583Z,5.72
2019-03-01T20:25:34.706Z,4.78
2019-03-01T20:28:04.020Z,4.97
2019-03-01T20:30:33.652Z,7.40
2019-03-01T20:33:02.200Z,5.95
2019-03-01T20:35:30.768Z,12.60
2019-03-01T20:38:03.311Z,8.93
2019-03-01T20:40:30.019Z,6.03
2019-03-01T20:43:06.317Z,4.33
2019-03-01T20:45:35.634Z,4.15
2019-03-01T20:48:04.162Z,2.92
2019-03-01T20:50:32.715Z,4.10
2019-03-01T20:53:01.213Z,8.70
2019-03-01T20:55:33.241Z,12.00
2019-03-01T20:58:03.131Z,4.37
2019-03-01T21:00:30.393Z,5.58
2019-03-01T21:02:58.934Z,4.37
2019-03-01T21:05:29.294Z,9.18
2019-03-01T21:07:57.746Z,7.08
2019-03-01T21:10:31.358Z,6.50
2019-03-01T21:12:59.834Z,4.75
2019-03-01T21:15:28.337Z,7.78
2019-03-01T21:17:58.512Z,3.65
2019-03-01T21:20:27.222Z,4.60
2019-03-01T21:22:55.720Z,4.50
2019-03-01T21:25:25.020Z,4.05
2019-03-01T21:27:53.521Z,3.70
2019-03-01T21:30:35.178Z,4.65
2019-03-01T21:33:03.738Z,3.67
2019-03-01T21:35:32.257Z,4.08
2019-03-01T21:38:02.886Z,4.60
2019-03-01T21:40:34.533Z,3.95
2019-03-01T21:43:01.640Z,4.58
2019-03-01T21:45:30.159Z,4.65
2019-03-01T21:47:58.658Z,4.03
2019-03-01T21:50:27.201Z,4.35
2019-03-01T21:52:55.847Z,4.25
2019-03-01T21:55:28.727Z,3.87
2019-03-01T21:57:57.007Z,3.33
2019-03-01T22:00:29.957Z,3.65
2019-03-01T22:02:57.998Z,3.65
2019-03-01T22:05:27.165Z,4.37
2019-03-01T22:07:55.687Z,3.52
2019-03-01T22:10:24.186Z,3.12
2019-03-01T22:12:52.737Z,3.80
2019-03-01T22:15:27.063Z,3.17
2019-03-01T22:17:56.121Z,3.00
2019-03-01T22:20:24.691Z,3.67
2019-03-01T22:22:53.307Z,3.65
2019-03-01T22:25:22.161Z,3.05
2019-03-01T22:27:50.664Z,2.98
2019-03-01T22:30:32.644Z,2.85
2019-03-01T22:33:01.183Z,2.27
